sensor_id;sensor_type;location;lat;lon;timestamp;P1;durP1;ratioP1;P2;durP2;ratioP2
63693;SDS011;49839;51.798;10.954;2022-07-24T00:00:24;2.35;;;0.68;;
63693;SDS011;49839;51.798;10.954;2022-07-24T00:02:52;1.95;;;0.70;;
63693;SDS011;49839;51.798;10.954;2022-07-24T00:05:19;3.42;;;0.70;;
63693;SDS011;49839;51.798;10.954;2022-07-24T00:07:47;4.20;;;0.65;;
63693;SDS011;49839;51.798;10.954;2022-07-24T00:10:14;3.92;;;0.90;;
63693;SDS011;49839;51.798;10.954;2022-07-24T00:12:42;1.42;;;0.65;;
63693;SDS011;49839;51.798;10.954;2022-07-24T00:15:11;3.15;;;0.80;;
63693;SDS011;49839;51.798;10.954;2022-07-24T00:17:39;1.50;;;0.65;;
63693;SDS011;49839;51.798;10.954;2022-07-24T00:20:07;2.25;;;0.70;;
63693;SDS011;49839;51.798;10.954;2022-07-24T00:22:35;1.25;;;0.55;;
63693;SDS011;49839;51.798;10.954;2022-07-24T00:25:03;2.60;;;0.85;;
63693;SDS011;49839;51.798;10.954;2022-07-24T00:27:31;1.70;;;0.70;;
63693;SDS011;49839;51.798;10.954;2022-07-24T00:29:59;2.50;;;0.70;;
63693;SDS011;49839;51.798;10.954;2022-07-24T00:32:28;2.85;;;0.80;;
63693;SDS011;49839;51.798;10.954;2022-07-24T00:34:56;2.90;;;0.70;;
63693;SDS011;49839;51.798;10.954;2022-07-24T00:37:23;2.78;;;0.80;;
63693;SDS011;49839;51.798;10.954;2022-07-24T00:39:51;2.28;;;0.63;;
63693;SDS011;49839;51.798;10.954;2022-07-24T00:42:18;1.15;;;0.70;;
63693;SDS011;49839;51.798;10.954;2022-07-24T00:44:46;4.55;;;1.27;;
63693;SDS011;49839;51.798;10.954;2022-07-24T00:47:13;5.28;;;0.82;;
63693;SDS011;49839;51.798;10.954;2022-07-24T00:49:42;4.40;;;0.98;;
63693;SDS011;49839;51.798;10.954;2022-07-24T00:52:10;6.03;;;0.82;;
63693;SDS011;49839;51.798;10.954;2022-07-24T00:54:37;4.00;;;1.38;;
63693;SDS011;49839;51.798;10.954;2022-07-24T00:57:06;2.65;;;1.40;;
63693;SDS011;49839;51.798;10.954;2022-07-24T00:59:33;3.88;;;1.40;;
63693;SDS011;49839;51.798;10.954;2022-07-24T01:02:01;3.30;;;1.15;;
63693;SDS011;49839;51.798;10.954;2022-07-24T01:04:29;4.38;;;0.90;;
63693;SDS011;49839;51.798;10.954;2022-07-24T01:06:58;5.15;;;0.90;;
63693;SDS011;49839;51.798;10.954;2022-07-24T01:09:26;4.38;;;1.10;;
63693;SDS011;49839;51.798;10.954;2022-07-24T01:11:54;2.83;;;0.90;;
63693;SDS011;49839;51.798;10.954;2022-07-24T01:14:22;1.65;;;0.90;;
63693;SDS011;49839;51.798;10.954;2022-07-24T01:16:50;2.30;;;0.80;;
63693;SDS011;49839;51.798;10.954;2022-07-24T01:19:17;3.55;;;0.90;;
63693;SDS011;49839;51.798;10.954;2022-07-24T01:21:47;3.08;;;1.05;;
63693;SDS011;49839;51.798;10.954;2022-07-24T01:24:15;3.85;;;0.90;;
63693;SDS011;49839;51.798;10.954;2022-07-24T01:26:44;2.75;;;1.30;;
63693;SDS011;49839;51.798;10.954;2022-07-24T01:29:11;3.42;;;1.15;;
63693;SDS011;49839;51.798;10.954;2022-07-24T01:31:39;5.55;;;1.15;;
63693;SDS011;49839;51.798;10.954;2022-07-24T01:34:07;4.03;;;1.10;;
63693;SDS011;49839;51.798;10.954;2022-07-24T01:36:35;4.60;;;0.95;;
63693;SDS011;49839;51.798;10.954;2022-07-24T01:39:04;3.03;;;1.00;;
63693;SDS011;49839;51.798;10.954;2022-07-24T01:41:32;6.88;;;1.40;;
63693;SDS011;49839;51.798;10.954;2022-07-24T01:43:59;4.90;;;0.90;;
63693;SDS011;49839;51.798;10.954;2022-07-24T01:46:27;4.15;;;1.08;;
63693;SDS011;49839;51.798;10.954;2022-07-24T01:48:55;6.78;;;2.00;;
63693;SDS011;49839;51.798;10.954;2022-07-24T01:51:23;3.83;;;1.50;;
63693;SDS011;49839;51.798;10.954;2022-07-24T01:53:50;4.60;;;1.80;;
63693;SDS011;49839;51.798;10.954;2022-07-24T01:56:19;3.90;;;1.70;;
63693;SDS011;49839;51.798;10.954;2022-07-24T01:58:47;4.45;;;1.90;;
63693;SDS011;49839;51.798;10.954;2022-07-24T02:01:15;5.22;;;1.70;;
63693;SDS011;49839;51.798;10.954;2022-07-24T02:03:42;10.00;;;1.70;;
63693;SDS011;49839;51.798;10.954;2022-07-24T02:06:10;5.50;;;1.90;;
63693;SDS011;49839;51.798;10.954;2022-07-24T02:08:38;4.70;;;1.60;;
63693;SDS011;49839;51.798;10.954;2022-07-24T02:11:05;4.00;;;1.65;;
63693;SDS011;49839;51.798;10.954;2022-07-24T02:13:34;4.60;;;1.90;;
63693;SDS011;49839;51.798;10.954;2022-07-24T02:16:02;3.45;;;1.77;;
63693;SDS011;49839;51.798;10.954;2022-07-24T02:18:30;3.08;;;1.60;;
63693;SDS011;49839;51.798;10.954;2022-07-24T02:20:58;4.25;;;1.75;;
63693;SDS011;49839;51.798;10.954;2022-07-24T02:23:26;4.55;;;1.40;;
63693;SDS011;49839;51.798;10.954;2022-07-24T02:25:53;4.40;;;1.70;;
63693;SDS011;49839;51.798;10.954;2022-07-24T02:28:21;3.17;;;1.55;;
63693;SDS011;49839;51.798;10.954;2022-07-24T02:30:50;5.50;;;1.65;;
63693;SDS011;49839;51.798;10.954;2022-07-24T02:33:18;3.72;;;1.10;;
63693;SDS011;49839;51.798;10.954;2022-07-24T02:35:45;5.03;;;1.48;;
63693;SDS011;49839;51.798;10.954;2022-07-24T02:38:14;6.75;;;1.40;;
63693;SDS011;49839;51.798;10.954;2022-07-24T02:40:41;3.92;;;1.40;;
63693;SDS011;49839;51.798;10.954;2022-07-24T02:43:09;4.03;;;1.60;;
63693;SDS011;49839;51.798;10.954;2022-07-24T02:45:36;6.03;;;1.35;;
63693;SDS011;49839;51.798;10.954;2022-07-24T02:48:05;2.42;;;1.40;;
63693;SDS011;49839;51.798;10.954;2022-07-24T02:50:33;5.82;;;1.33;;
63693;SDS011;49839;51.798;10.954;2022-07-24T02:53:04;7.53;;;1.60;;
63693;SDS011;49839;51.798;10.954;2022-07-24T02:55:32;4.72;;;1.83;;
63693;SDS011;49839;51.798;10.954;2022-07-24T02:58:00;6.20;;;2.08;;
63693;SDS011;49839;51.798;10.954;2022-07-24T03:00:27;6.88;;;1.80;;
63693;SDS011;49839;51.798;10.954;2022-07-24T03:02:55;7.68;;;1.77;;
63693;SDS011;49839;51.798;10.954;2022-07-24T03:05:24;4.85;;;1.70;;
63693;SDS011;49839;51.798;10.954;2022-07-24T03:07:51;4.40;;;1.48;;
63693;SDS011;49839;51.798;10.954;2022-07-24T03:10:19;2.85;;;1.20;;
63693;SDS011;49839;51.798;10.954;2022-07-24T03:12:48;3.33;;;1.02;;
63693;SDS011;49839;51.798;10.954;2022-07-24T03:15:15;3.47;;;1.23;;
63693;SDS011;49839;51.798;10.954;2022-07-24T03:17:49;3.38;;;1.33;;
63693;SDS011;49839;51.798;10.954;2022-07-24T03:20:18;4.18;;;1.60;;
63693;SDS011;49839;51.798;10.954;2022-07-24T03:22:47;4.00;;;1.60;;
63693;SDS011;49839;51.798;10.954;2022-07-24T03:25:16;3.75;;;1.73;;
63693;SDS011;49839;51.798;10.954;2022-07-24T03:27:44;6.18;;;1.92;;
63693;SDS011;49839;51.798;10.954;2022-07-24T03:30:12;4.97;;;1.55;;
63693;SDS011;49839;51.798;10.954;2022-07-24T03:32:40;3.20;;;1.50;;
63693;SDS011;49839;51.798;10.954;2022-07-24T03:35:08;7.20;;;1.60;;
63693;SDS011;49839;51.798;10.954;2022-07-24T03:37:36;4.15;;;1.80;;
63693;SDS011;49839;51.798;10.954;2022-07-24T03:40:06;5.40;;;1.50;;
63693;SDS011;49839;51.798;10.954;2022-07-24T03:42:34;5.85;;;1.70;;
63693;SDS011;49839;51.798;10.954;2022-07-24T03:45:02;4.53;;;1.30;;
63693;SDS011;49839;51.798;10.954;2022-07-24T03:47:30;5.38;;;1.55;;
63693;SDS011;49839;51.798;10.954;2022-07-24T03:49:58;4.80;;;1.52;;
63693;SDS011;49839;51.798;10.954;2022-07-24T03:52:26;4.95;;;1.80;;
63693;SDS011;49839;51.798;10.954;2022-07-24T03:54:54;7.15;;;1.98;;
63693;SDS011;49839;51.798;10.954;2022-07-24T03:57:23;4.50;;;1.55;;
63693;SDS011;49839;51.798;10.954;2022-07-24T03:59:50;4.45;;;1.70;;
63693;SDS011;49839;51.798;10.954;2022-07-24T04:02:18;4.35;;;1.50;;
63693;SDS011;49839;51.798;10.954;2022-07-24T04:04:46;6.00;;;1.73;;
63693;SDS011;49839;51.798;10.954;2022-07-24T04:07:13;4.38;;;1.42;;
63693;SDS011;49839;51.798;10.954;2022-07-24T04:09:41;5.75;;;1.65;;
63693;SDS011;49839;51.798;10.954;2022-07-24T04:12:09;5.82;;;1.40;;
63693;SDS011;49839;51.798;10.954;2022-07-24T04:14:38;4.55;;;1.48;;
63693;SDS011;49839;51.798;10.954;2022-07-24T04:17:05;4.80;;;1.33;;
63693;SDS011;49839;51.798;10.954;2022-07-24T04:19:33;4.30;;;1.40;;
63693;SDS011;49839;51.798;10.954;2022-07-24T04:22:01;2.90;;;1.38;;
63693;SDS011;49839;51.798;10.954;2022-07-24T04:24:28;6.60;;;1.52;;
63693;SDS011;49839;51.798;10.954;2022-07-24T04:26:56;4.53;;;1.30;;
63693;SDS011;49839;51.798;10.954;2022-07-24T04:29:23;8.38;;;2.80;;
63693;SDS011;49839;51.798;10.954;2022-07-24T04:31:52;7.75;;;3.78;;
63693;SDS011;49839;51.798;10.954;2022-07-24T04:34:20;15.15;;;11.05;;
63693;SDS011;49839;51.798;10.954;2022-07-24T04:36:48;13.90;;;8.93;;
63693;SDS011;49839;51.798;10.954;2022-07-24T04:39:15;18.00;;;12.25;;
63693;SDS011;49839;51.798;10.954;2022-07-24T04:41:43;8.57;;;4.95;;
63693;SDS011;49839;51.798;10.954;2022-07-24T04:44:11;4.05;;;2.15;;
63693;SDS011;49839;51.798;10.954;2022-07-24T04:46:38;5.45;;;1.60;;
63693;SDS011;49839;51.798;10.954;2022-07-24T04:49:07;4.57;;;1.27;;
63693;SDS011;49839;51.798;10.954;2022-07-24T04:51:35;4.30;;;1.50;;
63693;SDS011;49839;51.798;10.954;2022-07-24T04:54:03;3.92;;;1.33;;
63693;SDS011;49839;51.798;10.954;2022-07-24T04:56:31;3.47;;;1.38;;
63693;SDS011;49839;51.798;10.954;2022-07-24T04:58:59;3.25;;;1.27;;
63693;SDS011;49839;51.798;10.954;2022-07-24T05:01:28;4.40;;;1.10;;
63693;SDS011;49839;51.798;10.954;2022-07-24T05:03:56;5.57;;;1.33;;
63693;SDS011;49839;51.798;10.954;2022-07-24T05:06:26;3.28;;;1.17;;
63693;SDS011;49839;51.798;10.954;2022-07-24T05:11:21;4.30;;;1.20;;
63693;SDS011;49839;51.798;10.954;2022-07-24T05:13:49;4.35;;;1.20;;
63693;SDS011;49839;51.798;10.954;2022-07-24T05:16:17;4.32;;;1.20;;
63693;SDS011;49839;51.798;10.954;2022-07-24T05:18:44;3.13;;;1.33;;
63693;SDS011;49839;51.798;10.954;2022-07-24T05:21:12;5.65;;;1.30;;
63693;SDS011;49839;51.798;10.954;2022-07-24T05:23:42;3.03;;;1.30;;
63693;SDS011;49839;51.798;10.954;2022-07-24T05:26:10;4.50;;;1.80;;
63693;SDS011;49839;51.798;10.954;2022-07-24T05:28:37;4.25;;;1.80;;
63693;SDS011;49839;51.798;10.954;2022-07-24T05:31:05;4.20;;;1.10;;
63693;SDS011;49839;51.798;10.954;2022-07-24T05:36:02;4.05;;;1.40;;
63693;SDS011;49839;51.798;10.954;2022-07-24T05:38:30;4.30;;;1.48;;
63693;SDS011;49839;51.798;10.954;2022-07-24T05:40:58;4.93;;;1.63;;
63693;SDS011;49839;51.798;10.954;2022-07-24T05:43:28;4.25;;;1.40;;
63693;SDS011;49839;51.798;10.954;2022-07-24T05:45:56;5.18;;;1.35;;
63693;SDS011;49839;51.798;10.954;2022-07-24T05:48:24;3.70;;;1.17;;
63693;SDS011;49839;51.798;10.954;2022-07-24T05:50:51;3.67;;;0.90;;
63693;SDS011;49839;51.798;10.954;2022-07-24T05:53:19;1.98;;;0.85;;
63693;SDS011;49839;51.798;10.954;2022-07-24T05:55:46;4.28;;;0.90;;
63693;SDS011;49839;51.798;10.954;2022-07-24T05:58:15;4.22;;;0.80;;
63693;SDS011;49839;51.798;10.954;2022-07-24T06:00:44;3.38;;;0.90;;
63693;SDS011;49839;51.798;10.954;2022-07-24T06:03:11;2.70;;;0.68;;
63693;SDS011;49839;51.798;10.954;2022-07-24T06:05:39;3.03;;;1.30;;
63693;SDS011;49839;51.798;10.954;2022-07-24T06:08:07;3.88;;;1.00;;
63693;SDS011;49839;51.798;10.954;2022-07-24T06:10:35;3.77;;;0.97;;
63693;SDS011;49839;51.798;10.954;2022-07-24T06:13:02;2.20;;;0.80;;
63693;SDS011;49839;51.798;10.954;2022-07-24T06:15:32;2.67;;;0.63;;
63693;SDS011;49839;51.798;10.954;2022-07-24T06:18:05;3.20;;;0.75;;
63693;SDS011;49839;51.798;10.954;2022-07-24T06:20:33;3.53;;;0.90;;
63693;SDS011;49839;51.798;10.954;2022-07-24T06:23:00;2.13;;;0.80;;
63693;SDS011;49839;51.798;10.954;2022-07-24T06:25:28;3.08;;;0.90;;
63693;SDS011;49839;51.798;10.954;2022-07-24T06:27:55;2.45;;;0.88;;
63693;SDS011;49839;51.798;10.954;2022-07-24T06:30:24;4.28;;;1.08;;
63693;SDS011;49839;51.798;10.954;2022-07-24T06:32:56;2.50;;;0.65;;
63693;SDS011;49839;51.798;10.954;2022-07-24T06:35:24;1.27;;;0.70;;
63693;SDS011;49839;51.798;10.954;2022-07-24T06:37:55;1.95;;;0.70;;
63693;SDS011;49839;51.798;10.954;2022-07-24T06:40:23;2.30;;;0.77;;
63693;SDS011;49839;51.798;10.954;2022-07-24T06:42:50;5.40;;;0.95;;
63693;SDS011;49839;51.798;10.954;2022-07-24T06:45:18;2.90;;;0.90;;
63693;SDS011;49839;51.798;10.954;2022-07-24T06:47:45;2.95;;;0.73;;
63693;SDS011;49839;51.798;10.954;2022-07-24T06:50:14;4.95;;;0.90;;
63693;SDS011;49839;51.798;10.954;2022-07-24T06:52:42;3.70;;;0.80;;
63693;SDS011;49839;51.798;10.954;2022-07-24T06:55:11;2.10;;;0.80;;
63693;SDS011;49839;51.798;10.954;2022-07-24T06:57:39;4.43;;;0.90;;
63693;SDS011;49839;51.798;10.954;2022-07-24T07:00:08;2.60;;;0.95;;
63693;SDS011;49839;51.798;10.954;2022-07-24T07:02:37;2.33;;;0.80;;
63693;SDS011;49839;51.798;10.954;2022-07-24T07:05:07;3.40;;;0.88;;
63693;SDS011;49839;51.798;10.954;2022-07-24T07:10:05;3.35;;;0.90;;
63693;SDS011;49839;51.798;10.954;2022-07-24T07:12:33;4.03;;;1.00;;
63693;SDS011;49839;51.798;10.954;2022-07-24T07:15:06;3.00;;;1.00;;
63693;SDS011;49839;51.798;10.954;2022-07-24T07:17:36;2.88;;;0.98;;
63693;SDS011;49839;51.798;10.954;2022-07-24T07:20:04;1.70;;;0.80;;
63693;SDS011;49839;51.798;10.954;2022-07-24T07:25:01;3.88;;;0.95;;
63693;SDS011;49839;51.798;10.954;2022-07-24T07:27:29;3.30;;;1.30;;
63693;SDS011;49839;51.798;10.954;2022-07-24T07:29:57;1.65;;;1.00;;
63693;SDS011;49839;51.798;10.954;2022-07-24T07:32:25;1.45;;;0.90;;
63693;SDS011;49839;51.798;10.954;2022-07-24T07:34:52;4.38;;;1.10;;
63693;SDS011;49839;51.798;10.954;2022-07-24T07:37:20;2.72;;;1.10;;
63693;SDS011;49839;51.798;10.954;2022-07-24T07:39:47;5.18;;;1.27;;
63693;SDS011;49839;51.798;10.954;2022-07-24T07:42:16;4.97;;;1.30;;
63693;SDS011;49839;51.798;10.954;2022-07-24T07:44:44;3.60;;;1.40;;
63693;SDS011;49839;51.798;10.954;2022-07-24T07:47:12;2.40;;;0.93;;
63693;SDS011;49839;51.798;10.954;2022-07-24T07:49:40;3.75;;;1.13;;
63693;SDS011;49839;51.798;10.954;2022-07-24T07:52:08;2.75;;;1.00;;
63693;SDS011;49839;51.798;10.954;2022-07-24T07:54:36;4.23;;;1.03;;
63693;SDS011;49839;51.798;10.954;2022-07-24T07:57:03;4.18;;;1.05;;
63693;SDS011;49839;51.798;10.954;2022-07-24T07:59:32;2.42;;;1.20;;
63693;SDS011;49839;51.798;10.954;2022-07-24T08:02:00;4.75;;;1.00;;
63693;SDS011;49839;51.798;10.954;2022-07-24T08:04:27;3.17;;;1.27;;
63693;SDS011;49839;51.798;10.954;2022-07-24T08:06:55;3.42;;;1.25;;
63693;SDS011;49839;51.798;10.954;2022-07-24T08:09:23;3.93;;;1.30;;
63693;SDS011;49839;51.798;10.954;2022-07-24T08:11:51;3.83;;;1.30;;
63693;SDS011;49839;51.798;10.954;2022-07-24T08:14:19;4.18;;;1.17;;
63693;SDS011;49839;51.798;10.954;2022-07-24T08:16:48;3.63;;;1.10;;
63693;SDS011;49839;51.798;10.954;2022-07-24T08:19:16;2.88;;;1.20;;
63693;SDS011;49839;51.798;10.954;2022-07-24T08:21:43;3.07;;;1.23;;
63693;SDS011;49839;51.798;10.954;2022-07-24T08:24:12;3.28;;;1.15;;
63693;SDS011;49839;51.798;10.954;2022-07-24T08:26:47;3.50;;;1.38;;
63693;SDS011;49839;51.798;10.954;2022-07-24T08:29:15;3.60;;;1.13;;
63693;SDS011;49839;51.798;10.954;2022-07-24T08:31:43;3.03;;;1.27;;
63693;SDS011;49839;51.798;10.954;2022-07-24T08:34:12;4.00;;;1.67;;
63693;SDS011;49839;51.798;10.954;2022-07-24T08:36:40;3.80;;;1.25;;
63693;SDS011;49839;51.798;10.954;2022-07-24T08:39:11;3.13;;;1.40;;
63693;SDS011;49839;51.798;10.954;2022-07-24T08:41:38;3.03;;;1.20;;
63693;SDS011;49839;51.798;10.954;2022-07-24T08:44:06;2.50;;;1.13;;
63693;SDS011;49839;51.798;10.954;2022-07-24T08:46:34;3.35;;;1.10;;
63693;SDS011;49839;51.798;10.954;2022-07-24T08:49:06;2.85;;;1.23;;
63693;SDS011;49839;51.798;10.954;2022-07-24T08:51:38;3.65;;;1.17;;
63693;SDS011;49839;51.798;10.954;2022-07-24T08:54:09;2.50;;;1.20;;
63693;SDS011;49839;51.798;10.954;2022-07-24T08:56:37;3.47;;;1.10;;
63693;SDS011;49839;51.798;10.954;2022-07-24T08:59:14;2.67;;;1.10;;
63693;SDS011;49839;51.798;10.954;2022-07-24T09:01:50;3.55;;;1.20;;
63693;SDS011;49839;51.798;10.954;2022-07-24T09:04:30;3.42;;;1.20;;
63693;SDS011;49839;51.798;10.954;2022-07-24T09:07:00;4.65;;;1.20;;
63693;SDS011;49839;51.798;10.954;2022-07-24T09:09:29;3.58;;;1.10;;
63693;SDS011;49839;51.798;10.954;2022-07-24T09:12:04;2.05;;;1.10;;
63693;SDS011;49839;51.798;10.954;2022-07-24T09:14:36;1.45;;;1.02;;
63693;SDS011;49839;51.798;10.954;2022-07-24T09:17:06;4.53;;;1.30;;
63693;SDS011;49839;51.798;10.954;2022-07-24T09:19:47;2.72;;;1.23;;
63693;SDS011;49839;51.798;10.954;2022-07-24T09:22:21;4.13;;;1.27;;
63693;SDS011;49839;51.798;10.954;2022-07-24T09:25:03;3.42;;;1.50;;
63693;SDS011;49839;51.798;10.954;2022-07-24T09:27:36;4.05;;;1.40;;
63693;SDS011;49839;51.798;10.954;2022-07-24T09:30:06;3.05;;;1.35;;
63693;SDS011;49839;51.798;10.954;2022-07-24T09:32:38;3.25;;;1.30;;
63693;SDS011;49839;51.798;10.954;2022-07-24T09:35:06;3.35;;;1.33;;
63693;SDS011;49839;51.798;10.954;2022-07-24T09:37:36;2.55;;;1.15;;
63693;SDS011;49839;51.798;10.954;2022-07-24T09:40:08;2.72;;;1.15;;
63693;SDS011;49839;51.798;10.954;2022-07-24T09:42:37;3.17;;;1.20;;
63693;SDS011;49839;51.798;10.954;2022-07-24T09:45:08;2.92;;;1.38;;
63693;SDS011;49839;51.798;10.954;2022-07-24T09:47:38;3.90;;;1.15;;
63693;SDS011;49839;51.798;10.954;2022-07-24T09:50:11;2.70;;;1.30;;
63693;SDS011;49839;51.798;10.954;2022-07-24T09:52:41;2.38;;;1.23;;
63693;SDS011;49839;51.798;10.954;2022-07-24T09:55:18;3.70;;;1.30;;
63693;SDS011;49839;51.798;10.954;2022-07-24T09:57:51;3.00;;;1.50;;
63693;SDS011;49839;51.798;10.954;2022-07-24T10:00:19;3.95;;;1.40;;
63693;SDS011;49839;51.798;10.954;2022-07-24T10:05:16;2.33;;;1.15;;
63693;SDS011;49839;51.798;10.954;2022-07-24T10:07:48;3.28;;;1.38;;
63693;SDS011;49839;51.798;10.954;2022-07-24T10:10:20;4.47;;;1.88;;
63693;SDS011;49839;51.798;10.954;2022-07-24T10:12:48;6.03;;;1.30;;
63693;SDS011;49839;51.798;10.954;2022-07-24T10:15:16;3.88;;;1.30;;
63693;SDS011;49839;51.798;10.954;2022-07-24T10:17:54;2.50;;;1.30;;
63693;SDS011;49839;51.798;10.954;2022-07-24T10:20:37;4.28;;;1.30;;
63693;SDS011;49839;51.798;10.954;2022-07-24T10:23:20;3.25;;;1.27;;
63693;SDS011;49839;51.798;10.954;2022-07-24T10:25:52;4.25;;;1.35;;
63693;SDS011;49839;51.798;10.954;2022-07-24T10:31:09;3.20;;;1.33;;
63693;SDS011;49839;51.798;10.954;2022-07-24T10:33:39;4.40;;;1.30;;
63693;SDS011;49839;51.798;10.954;2022-07-24T10:36:13;5.07;;;1.40;;
63693;SDS011;49839;51.798;10.954;2022-07-24T10:38:48;2.50;;;1.20;;
63693;SDS011;49839;51.798;10.954;2022-07-24T10:41:24;2.67;;;1.17;;
63693;SDS011;49839;51.798;10.954;2022-07-24T10:44:14;3.00;;;1.02;;
63693;SDS011;49839;51.798;10.954;2022-07-24T10:46:56;2.60;;;1.20;;
63693;SDS011;49839;51.798;10.954;2022-07-24T10:49:39;3.17;;;1.48;;
63693;SDS011;49839;51.798;10.954;2022-07-24T10:52:22;3.08;;;1.33;;
63693;SDS011;49839;51.798;10.954;2022-07-24T10:57:55;4.43;;;1.30;;
63693;SDS011;49839;51.798;10.954;2022-07-24T11:00:25;2.70;;;1.17;;
63693;SDS011;49839;51.798;10.954;2022-07-24T11:03:00;4.65;;;1.45;;
63693;SDS011;49839;51.798;10.954;2022-07-24T11:05:31;3.78;;;1.50;;
63693;SDS011;49839;51.798;10.954;2022-07-24T11:10:59;3.50;;;1.50;;
63693;SDS011;49839;51.798;10.954;2022-07-24T11:13:39;2.85;;;1.50;;
63693;SDS011;49839;51.798;10.954;2022-07-24T11:22:09;3.80;;;1.50;;
63693;SDS011;49839;51.798;10.954;2022-07-24T11:24:42;3.17;;;1.40;;
63693;SDS011;49839;51.798;10.954;2022-07-24T11:27:41;4.10;;;1.80;;
63693;SDS011;49839;51.798;10.954;2022-07-24T11:30:25;2.63;;;1.70;;
63693;SDS011;49839;51.798;10.954;2022-07-24T11:32:54;3.42;;;1.80;;
63693;SDS011;49839;51.798;10.954;2022-07-24T11:35:29;5.13;;;1.60;;
63693;SDS011;49839;51.798;10.954;2022-07-24T11:37:59;4.75;;;1.73;;
63693;SDS011;49839;51.798;10.954;2022-07-24T11:40:29;3.10;;;1.50;;
63693;SDS011;49839;51.798;10.954;2022-07-24T11:42:58;3.65;;;1.60;;
63693;SDS011;49839;51.798;10.954;2022-07-24T11:45:30;2.50;;;1.50;;
63693;SDS011;49839;51.798;10.954;2022-07-24T11:47:59;3.88;;;1.50;;
63693;SDS011;49839;51.798;10.954;2022-07-24T11:50:26;6.25;;;1.60;;
63693;SDS011;49839;51.798;10.954;2022-07-24T11:52:55;3.80;;;1.58;;
63693;SDS011;49839;51.798;10.954;2022-07-24T11:55:23;4.00;;;1.48;;
63693;SDS011;49839;51.798;10.954;2022-07-24T11:57:53;4.25;;;1.70;;
63693;SDS011;49839;51.798;10.954;2022-07-24T12:00:42;4.70;;;1.60;;
63693;SDS011;49839;51.798;10.954;2022-07-24T12:03:10;2.67;;;1.58;;
63693;SDS011;49839;51.798;10.954;2022-07-24T12:05:41;5.57;;;1.48;;
63693;SDS011;49839;51.798;10.954;2022-07-24T12:08:16;3.55;;;1.75;;
63693;SDS011;49839;51.798;10.954;2022-07-24T12:10:47;2.92;;;1.40;;
63693;SDS011;49839;51.798;10.954;2022-07-24T12:13:17;4.07;;;1.55;;
63693;SDS011;49839;51.798;10.954;2022-07-24T12:15:45;4.97;;;1.75;;
63693;SDS011;49839;51.798;10.954;2022-07-24T12:18:12;4.32;;;1.85;;
63693;SDS011;49839;51.798;10.954;2022-07-24T12:20:41;2.90;;;1.57;;
63693;SDS011;49839;51.798;10.954;2022-07-24T12:23:11;4.53;;;2.95;;
63693;SDS011;49839;51.798;10.954;2022-07-24T12:25:40;3.67;;;1.55;;
63693;SDS011;49839;51.798;10.954;2022-07-24T12:30:39;4.63;;;1.60;;
63693;SDS011;49839;51.798;10.954;2022-07-24T12:33:08;2.88;;;1.65;;
63693;SDS011;49839;51.798;10.954;2022-07-24T12:35:51;4.50;;;1.75;;
63693;SDS011;49839;51.798;10.954;2022-07-24T12:38:24;3.33;;;1.90;;
63693;SDS011;49839;51.798;10.954;2022-07-24T12:41:00;4.38;;;1.83;;
63693;SDS011;49839;51.798;10.954;2022-07-24T12:43:29;3.70;;;1.65;;
63693;SDS011;49839;51.798;10.954;2022-07-24T12:46:05;3.97;;;1.60;;
63693;SDS011;49839;51.798;10.954;2022-07-24T12:48:34;4.47;;;1.60;;
63693;SDS011;49839;51.798;10.954;2022-07-24T12:51:06;4.72;;;1.90;;
63693;SDS011;49839;51.798;10.954;2022-07-24T12:53:36;2.80;;;1.70;;
63693;SDS011;49839;51.798;10.954;2022-07-24T12:56:06;4.55;;;1.77;;
63693;SDS011;49839;51.798;10.954;2022-07-24T12:58:49;4.18;;;1.70;;
63693;SDS011;49839;51.798;10.954;2022-07-24T13:01:23;4.65;;;1.70;;
63693;SDS011;49839;51.798;10.954;2022-07-24T13:03:53;4.10;;;1.67;;
63693;SDS011;49839;51.798;10.954;2022-07-24T13:06:35;3.65;;;1.70;;
63693;SDS011;49839;51.798;10.954;2022-07-24T13:09:06;3.45;;;1.67;;
63693;SDS011;49839;51.798;10.954;2022-07-24T13:11:35;2.90;;;1.65;;
63693;SDS011;49839;51.798;10.954;2022-07-24T13:14:04;6.50;;;1.67;;
63693;SDS011;49839;51.798;10.954;2022-07-24T13:16:35;5.25;;;1.58;;
63693;SDS011;49839;51.798;10.954;2022-07-24T13:19:04;5.35;;;1.90;;
63693;SDS011;49839;51.798;10.954;2022-07-24T13:21:33;6.43;;;1.95;;
63693;SDS011;49839;51.798;10.954;2022-07-24T13:24:04;4.50;;;1.70;;
63693;SDS011;49839;51.798;10.954;2022-07-24T13:26:33;4.32;;;1.75;;
63693;SDS011;49839;51.798;10.954;2022-07-24T13:29:03;4.18;;;1.50;;
63693;SDS011;49839;51.798;10.954;2022-07-24T13:31:31;2.63;;;1.60;;
63693;SDS011;49839;51.798;10.954;2022-07-24T13:34:01;4.87;;;1.80;;
63693;SDS011;49839;51.798;10.954;2022-07-24T13:36:29;3.15;;;1.70;;
63693;SDS011;49839;51.798;10.954;2022-07-24T13:38:57;3.92;;;1.60;;
63693;SDS011;49839;51.798;10.954;2022-07-24T13:41:24;3.75;;;1.58;;
63693;SDS011;49839;51.798;10.954;2022-07-24T13:43:52;3.55;;;1.90;;
63693;SDS011;49839;51.798;10.954;2022-07-24T13:46:20;4.90;;;1.90;;
63693;SDS011;49839;51.798;10.954;2022-07-24T13:48:48;2.83;;;1.58;;
63693;SDS011;49839;51.798;10.954;2022-07-24T13:51:24;4.85;;;2.00;;
63693;SDS011;49839;51.798;10.954;2022-07-24T13:53:51;4.13;;;1.60;;
63693;SDS011;49839;51.798;10.954;2022-07-24T13:56:20;2.97;;;1.67;;
63693;SDS011;49839;51.798;10.954;2022-07-24T13:58:49;6.25;;;1.83;;
63693;SDS011;49839;51.798;10.954;2022-07-24T14:01:17;3.33;;;1.60;;
63693;SDS011;49839;51.798;10.954;2022-07-24T14:06:35;3.60;;;1.80;;
63693;SDS011;49839;51.798;10.954;2022-07-24T14:09:03;3.75;;;2.00;;
63693;SDS011;49839;51.798;10.954;2022-07-24T14:11:34;4.72;;;1.70;;
63693;SDS011;49839;51.798;10.954;2022-07-24T14:14:01;5.65;;;1.80;;
63693;SDS011;49839;51.798;10.954;2022-07-24T14:18:58;2.95;;;1.60;;
63693;SDS011;49839;51.798;10.954;2022-07-24T14:21:26;3.03;;;1.90;;
63693;SDS011;49839;51.798;10.954;2022-07-24T14:23:56;4.50;;;1.73;;
63693;SDS011;49839;51.798;10.954;2022-07-24T14:28:51;3.40;;;1.70;;
63693;SDS011;49839;51.798;10.954;2022-07-24T14:31:18;4.68;;;1.88;;
63693;SDS011;49839;51.798;10.954;2022-07-24T14:33:46;4.15;;;1.88;;
63693;SDS011;49839;51.798;10.954;2022-07-24T14:36:14;3.10;;;1.70;;
63693;SDS011;49839;51.798;10.954;2022-07-24T14:38:42;5.30;;;1.83;;
63693;SDS011;49839;51.798;10.954;2022-07-24T14:41:11;4.35;;;1.80;;
63693;SDS011;49839;51.798;10.954;2022-07-24T14:46:06;6.90;;;1.73;;
63693;SDS011;49839;51.798;10.954;2022-07-24T14:48:33;2.80;;;1.73;;
63693;SDS011;49839;51.798;10.954;2022-07-24T14:51:01;4.40;;;1.83;;
63693;SDS011;49839;51.798;10.954;2022-07-24T14:53:29;3.42;;;1.48;;
63693;SDS011;49839;51.798;10.954;2022-07-24T14:55:56;3.88;;;1.88;;
63693;SDS011;49839;51.798;10.954;2022-07-24T14:58:25;3.75;;;1.48;;
63693;SDS011;49839;51.798;10.954;2022-07-24T15:03:21;3.08;;;1.60;;
63693;SDS011;49839;51.798;10.954;2022-07-24T15:05:49;3.00;;;1.80;;
63693;SDS011;49839;51.798;10.954;2022-07-24T15:08:16;4.10;;;2.00;;
63693;SDS011;49839;51.798;10.954;2022-07-24T15:10:44;4.47;;;1.73;;
63693;SDS011;49839;51.798;10.954;2022-07-24T15:13:11;5.35;;;1.77;;
63693;SDS011;49839;51.798;10.954;2022-07-24T15:15:40;2.85;;;1.80;;
63693;SDS011;49839;51.798;10.954;2022-07-24T15:20:35;3.88;;;1.70;;
63693;SDS011;49839;51.798;10.954;2022-07-24T15:23:03;4.88;;;1.85;;
63693;SDS011;49839;51.798;10.954;2022-07-24T15:25:30;3.30;;;1.70;;
63693;SDS011;49839;51.798;10.954;2022-07-24T15:30:27;3.60;;;1.90;;
63693;SDS011;49839;51.798;10.954;2022-07-24T15:32:58;3.33;;;1.60;;